Time;durP1;ratioP1;P1;durP2;ratioP2;P2;SDS_P1;SDS_P2;PMS_P1;PMS_P2;Temp;Humidity;BMP_temperature;BMP_pressure;BME280_temperature;BME280_humidity;BME280_pressure;Samples;Min_cycle;Max_cycle;Signal;HPM_P1;HPM_P2
2021/05/01 00:02:34;;;;;;;16.83;15.13;;;;;;;8.65;71.01;94974.56;6833330;28;20222;-69
2021/05/01 00:05:55;;;;;;;16.33;14.83;;;;;;;8.63;70.41;94984.47;6856337;28;20216;-68
2021/05/01 00:09:15;;;;;;;14.57;13.27;;;;;;;8.63;70.54;94983.63;6838655;28;20214;-68
2021/05/01 00:12:39;;;;;;;17.33;15.73;;;;;;;8.56;71.15;94985.94;6852176;28;20716;-69
2021/05/01 00:15:59;;;;;;;18.23;16.53;;;;;;;8.57;70.92;94967.28;6813015;28;20702;-69
2021/05/01 00:19:20;;;;;;;18.93;17.03;;;;;;;8.55;71.03;94961.28;6824415;28;20719;-68
2021/05/01 00:22:42;;;;;;;15.73;14.30;;;;;;;8.58;71.06;94953.09;6854667;28;20202;-68
2021/05/01 00:26:03;;;;;;;16.70;15.10;;;;;;;8.60;71.29;94958.25;6839124;28;20218;-68
2021/05/01 00:29:23;;;;;;;17.77;15.90;;;;;;;8.59;70.82;94949.47;6812687;28;20229;-68
2021/05/01 00:32:44;;;;;;;18.57;16.57;;;;;;;8.60;70.85;94937.09;6816221;28;20805;-67
2021/05/01 00:36:05;;;;;;;18.90;16.90;;;;;;;8.56;71.22;94935.66;6811901;28;20215;-68
2021/05/01 00:39:25;;;;;;;16.40;14.87;;;;;;;8.53;71.24;94933.28;6827230;28;20330;-68
2021/05/01 00:42:48;;;;;;;17.03;15.47;;;;;;;8.52;70.97;94935.09;6811301;28;20775;-69
2021/05/01 00:46:09;;;;;;;18.53;16.73;;;;;;;8.51;71.11;94922.81;6812499;28;20245;-68
2021/05/01 00:49:29;;;;;;;18.23;16.53;;;;;;;8.47;71.27;94917.94;6811089;28;20662;-69
2021/05/01 00:52:50;;;;;;;18.73;16.87;;;;;;;8.46;71.35;94926.81;6828281;28;20236;-68
2021/05/01 00:56:10;;;;;;;22.20;20.00;;;;;;;8.43;71.17;94922.66;6826727;28;20600;-68
2021/05/01 00:59:31;;;;;;;19.20;17.50;;;;;;;8.40;71.35;94925.53;6830527;28;20914;-68
2021/05/01 01:02:51;;;;;;;19.03;17.23;;;;;;;8.38;71.39;94935.44;6811160;28;20266;-68
2021/05/01 01:06:13;;;;;;;19.63;17.73;;;;;;;8.40;71.47;94936.13;6826968;28;20219;-68
2021/05/01 01:09:37;;;;;;;20.07;18.07;;;;;;;8.42;71.04;94920.97;6811595;28;20280;-68
2021/05/01 01:12:57;;;;;;;18.33;16.53;;;;;;;8.44;71.68;94919.03;6823014;28;20219;-69
2021/05/01 01:16:17;;;;;;;19.23;17.33;;;;;;;8.43;71.46;94920.00;6822795;28;20292;-68
2021/05/01 01:19:39;;;;;;;19.07;17.17;;;;;;;8.41;71.70;94910.50;6810571;28;20239;-68
2021/05/01 01:22:59;;;;;;;18.50;16.57;;;;;;;8.41;71.63;94903.41;6825747;28;20265;-68
2021/05/01 01:26:20;;;;;;;19.73;17.13;;;;;;;8.44;71.27;94894.38;6842002;28;20214;-68
2021/05/01 01:29:42;;;;;;;19.47;17.67;;;;;;;8.42;71.01;94897.16;6841900;28;20218;-69
2021/05/01 01:33:07;;;;;;;18.80;17.10;;;;;;;8.39;71.43;94893.94;6826188;28;20283;-68
2021/05/01 01:36:30;;;;;;;19.87;17.87;;;;;;;8.37;71.53;94893.22;6838599;28;20211;-68
2021/05/01 01:39:52;;;;;;;19.30;17.40;;;;;;;8.34;71.91;94888.22;6826822;28;20233;-68
2021/05/01 01:43:13;;;;;;;18.37;16.67;;;;;;;8.35;71.73;94898.63;6825214;28;20259;-68
2021/05/01 01:46:36;;;;;;;19.00;17.30;;;;;;;8.40;71.54;94890.34;6809875;28;20267;-68
2021/05/01 01:49:56;;;;;;;17.70;16.07;;;;;;;8.39;71.33;94886.84;6825420;28;20289;-68
2021/05/01 01:53:17;;;;;;;18.83;17.03;;;;;;;8.40;71.02;94891.16;6840838;28;20293;-68
2021/05/01 01:56:37;;;;;;;19.70;17.90;;;;;;;8.41;71.13;94892.00;6809704;28;20235;-67
2021/05/01 01:59:58;;;;;;;20.17;18.23;;;;;;;8.40;71.38;94883.22;6809813;28;20242;-68
2021/05/01 02:03:19;;;;;;;20.23;18.33;;;;;;;8.37;71.61;94882.63;6814543;28;20225;-69
2021/05/01 02:06:40;;;;;;;21.13;19.13;;;;;;;8.38;71.44;94886.97;6805656;28;20223;-68
2021/05/01 02:10:00;;;;;;;22.53;20.30;;;;;;;8.41;71.80;94884.03;6827140;28;20223;-68
2021/05/01 02:13:21;;;;;;;23.77;21.37;;;;;;;8.39;71.69;94886.84;6829816;28;20223;-69
2021/05/01 02:16:44;;;;;;;26.57;23.77;;;;;;;8.36;71.68;94887.09;6823471;28;20224;-68
2021/05/01 02:20:06;;;;;;;25.43;22.67;;;;;;;8.36;71.42;94862.44;6825436;28;20231;-68
2021/05/01 02:23:27;;;;;;;25.57;22.97;;;;;;;8.35;71.57;94863.44;6816834;28;20230;-68
2021/05/01 02:26:47;;;;;;;27.60;24.70;;;;;;;8.38;72.05;94857.88;6843438;28;20223;-68
2021/05/01 02:30:13;;;;;;;26.43;23.73;;;;;;;8.42;71.77;94851.34;6823591;28;20282;-68
2021/05/01 02:33:33;;;;;;;27.40;24.50;;;;;;;8.42;71.34;94846.03;6821574;28;20238;-68
2021/05/01 02:36:54;;;;;;;27.60;24.73;;;;;;;8.42;71.76;94852.19;6807791;28;20228;-69
2021/05/01 02:40:15;;;;;;;27.73;24.73;;;;;;;8.40;70.82;94848.81;6823164;28;20222;-68
2021/05/01 02:43:38;;;;;;;27.03;24.13;;;;;;;8.38;71.41;94848.13;6813098;28;20258;-68
2021/05/01 02:46:59;;;;;;;28.07;24.87;;;;;;;8.36;71.71;94844.75;6834016;28;20233;-68
2021/05/01 02:50:19;;;;;;;26.53;23.83;;;;;;;8.37;71.84;94842.97;6826267;28;20266;-69
2021/05/01 02:53:42;;;;;;;29.57;25.97;;;;;;;8.38;72.12;94845.47;6830458;28;20297;-68
2021/05/01 02:57:06;;;;;;;24.57;22.07;;;;;;;8.40;72.16;94846.16;6822504;28;20607;-68
2021/05/01 03:00:27;;;;;;;23.50;21.00;;;;;;;8.42;71.88;94840.75;6829254;28;20230;-68
2021/05/01 03:03:47;;;;;;;24.53;21.93;;;;;;;8.43;72.35;94831.84;6814147;28;20596;-68
2021/05/01 03:07:10;;;;;;;27.30;23.80;;;;;;;8.45;72.11;94840.50;6822476;28;20707;-68
2021/05/01 03:10:30;;;;;;;29.27;24.80;;;;;;;8.44;72.07;94842.31;6856362;28;20234;-68
2021/05/01 03:13:51;;;;;;;28.53;25.53;;;;;;;8.42;71.88;94838.09;6830807;28;20223;-68
2021/05/01 03:17:12;;;;;;;29.87;26.77;;;;;;;8.39;71.96;94836.56;6828752;28;20228;-68
2021/05/01 03:20:33;;;;;;;29.50;26.30;;;;;;;8.40;71.90;94846.16;6829569;28;20775;-68
2021/05/01 03:23:55;;;;;;;29.40;26.37;;;;;;;8.40;71.82;94840.06;6823370;28;20254;-68
2021/05/01 03:27:15;;;;;;;29.67;26.47;;;;;;;8.38;72.17;94829.59;6810086;28;20218;-68
2021/05/01 03:30:36;;;;;;;30.67;27.40;;;;;;;8.38;72.57;94831.41;6810769;28;20272;-68
2021/05/01 03:33:56;;;;;;;37.53;30.53;;;;;;;8.34;72.00;94825.56;6813363;28;20291;-68
2021/05/01 03:37:17;;;;;;;31.80;28.53;;;;;;;8.35;72.67;94819.28;6844602;28;20320;-67
2021/05/01 03:40:37;;;;;;;35.40;31.33;;;;;;;8.34;72.40;94809.69;6811659;28;20240;-68
2021/05/01 03:43:58;;;;;;;35.30;30.87;;;;;;;8.33;72.41;94802.72;6811447;28;20223;-68
2021/05/01 03:47:21;;;;;;;33.07;29.47;;;;;;;8.31;73.00;94786.13;6844220;28;20250;-68
2021/05/01 03:50:41;;;;;;;34.47;30.73;;;;;;;8.29;72.78;94793.34;6813481;28;20223;-68
2021/05/01 03:54:02;;;;;;;33.33;29.73;;;;;;;8.28;73.20;94796.94;6812412;28;20251;-68
2021/05/01 03:57:22;;;;;;;35.50;30.90;;;;;;;8.24;72.99;94794.72;6812400;28;20215;-68
2021/05/01 04:00:43;;;;;;;38.63;33.57;;;;;;;8.21;72.95;94777.28;6828114;28;20236;-69
2021/05/01 04:04:04;;;;;;;56.20;34.67;;;;;;;8.22;73.33;94781.63;6812582;28;21103;-68
2021/05/01 04:07:24;;;;;;;43.37;32.83;;;;;;;8.22;73.11;94775.47;6811845;28;20246;-68
2021/05/01 04:10:44;;;;;;;41.43;33.13;;;;;;;8.18;73.09;94778.41;6844155;28;20222;-68
2021/05/01 04:14:05;;;;;;;36.30;32.30;;;;;;;8.18;73.25;94770.47;6822638;28;20215;-68
2021/05/01 04:17:27;;;;;;;38.33;33.67;;;;;;;8.19;73.48;94771.31;6791054;28;20238;-68
2021/05/01 04:20:48;;;;;;;46.30;38.33;;;;;;;8.18;73.42;94774.91;6802463;28;20779;-68
2021/05/01 04:24:08;;;;;;;52.50;40.83;;;;;;;8.16;73.73;94759.19;6811942;28;20741;-69
2021/05/01 04:27:30;;;;;;;54.13;41.43;;;;;;;8.13;73.57;94759.44;6788018;28;20231;-70
2021/05/01 04:30:50;;;;;;;54.97;43.70;;;;;;;8.14;73.69;94768.22;6798123;28;20685;-69
2021/05/01 04:34:11;;;;;;;58.70;44.80;;;;;;;8.13;74.12;94775.31;6812809;28;22074;-69
2021/05/01 04:37:31;;;;;;;51.87;40.37;;;;;;;8.16;74.03;94780.34;6823621;28;20648;-69
2021/05/01 04:40:52;;;;;;;55.27;42.30;;;;;;;8.23;73.64;94788.59;6810828;28;20227;-69
2021/05/01 04:44:13;;;;;;;53.57;43.67;;;;;;;8.27;74.19;94792.63;6810898;28;20231;-69
2021/05/01 04:47:33;;;;;;;51.23;41.77;;;;;;;8.32;73.94;94789.63;6813575;28;20254;-68
2021/05/01 04:50:54;;;;;;;46.13;39.50;;;;;;;8.32;73.52;94786.97;6817609;28;20234;-69
2021/05/01 04:54:14;;;;;;;44.03;37.97;;;;;;;8.29;73.30;94780.13;6806436;28;20298;-69
2021/05/01 04:57:35;;;;;;;45.90;38.70;;;;;;;8.30;73.13;94781.78;6791452;28;20229;-69
2021/05/01 05:00:55;;;;;;;40.90;36.47;;;;;;;8.31;73.13;94769.41;6821710;28;20228;-68
2021/05/01 05:04:15;;;;;;;41.13;36.63;;;;;;;8.29;73.25;94774.00;6809897;28;20274;-69
2021/05/01 05:07:36;;;;;;;45.20;39.17;;;;;;;8.27;73.05;94783.84;6791448;28;20266;-69
2021/05/01 05:10:56;;;;;;;45.20;38.43;;;;;;;8.29;73.78;94781.91;6796181;28;20214;-69
2021/05/01 05:14:17;;;;;;;42.50;36.17;;;;;;;8.32;73.84;94784.31;6812392;28;20226;-71
2021/05/01 05:17:39;;;;;;;47.07;38.63;;;;;;;8.34;73.56;94775.28;6792162;28;20314;-70
2021/05/01 05:21:00;;;;;;;42.17;34.50;;;;;;;8.37;73.48;94768.88;6828275;28;20299;-69
2021/05/01 05:24:21;;;;;;;36.77;32.73;;;;;;;8.38;73.10;94781.16;6811757;28;20231;-68
2021/05/01 05:27:41;;;;;;;34.03;30.00;;;;;;;8.38;72.63;94781.16;6841860;28;20226;-67
2021/05/01 05:31:04;;;;;;;35.43;31.83;;;;;;;8.41;72.48;94783.50;6805295;28;20591;-68
2021/05/01 05:34:25;;;;;;;35.67;30.27;;;;;;;8.36;72.60;94785.72;6808103;28;20247;-68
2021/05/01 05:37:46;;;;;;;37.57;33.13;;;;;;;8.34;72.66;94783.22;6829538;28;20309;-70
2021/05/01 05:41:06;;;;;;;37.07;32.73;;;;;;;8.39;72.79;94788.97;6811745;28;20672;-68
2021/05/01 05:44:27;;;;;;;38.07;33.20;;;;;;;8.40;72.44;94787.16;6799389;28;20273;-68
2021/05/01 05:47:47;;;;;;;39.60;33.80;;;;;;;8.38;72.56;94781.16;6809630;28;20303;-70
2021/05/01 05:51:10;;;;;;;43.27;36.73;;;;;;;8.39;73.38;94781.03;6827160;28;20236;-69
2021/05/01 05:54:33;;;;;;;36.13;32.27;;;;;;;8.42;73.41;94780.75;6828326;28;21036;-69
2021/05/01 05:57:56;;;;;;;34.60;30.93;;;;;;;8.42;72.82;94787.84;6827477;28;20753;-68
2021/05/01 06:01:16;;;;;;;35.03;30.23;;;;;;;8.39;73.08;94778.38;6805023;28;20312;-68
2021/05/01 06:05:03;;;;;;;37.17;31.87;;;;;;;8.40;72.93;94769.44;6807947;28;20225;-68
2021/05/01 06:08:23;;;;;;;34.83;29.37;;;;;;;8.41;72.98;94767.63;6849837;28;20230;-68
2021/05/01 06:11:44;;;;;;;37.03;31.40;;;;;;;8.49;73.58;94779.25;6822455;28;20222;-69
2021/05/01 06:15:07;;;;;;;32.50;28.00;;;;;;;8.51;73.76;94776.44;6845559;28;20304;-69
2021/05/01 06:18:34;;;;;;;30.63;26.43;;;;;;;8.55;73.81;94781.31;6835280;28;20219;-68
2021/05/01 06:21:55;;;;;;;40.17;30.37;;;;;;;8.64;73.96;94784.16;6830440;28;20695;-68
2021/05/01 06:25:15;;;;;;;28.60;25.50;;;;;;;8.73;74.43;94788.63;6836402;28;20710;-69
2021/05/01 06:28:36;;;;;;;24.83;22.17;;;;;;;8.76;73.90;94793.63;6852527;28;20307;-68
2021/05/01 06:31:57;;;;;;;23.53;21.00;;;;;;;8.77;73.59;94792.66;6835125;28;20217;-68
2021/05/01 06:35:18;;;;;;;24.13;21.43;;;;;;;8.80;73.29;94800.34;6820309;28;20695;-69
2021/05/01 06:38:39;;;;;;;24.03;21.43;;;;;;;8.83;73.09;94808.84;6818289;28;20238;-69
2021/05/01 06:42:03;;;;;;;29.30;26.10;;;;;;;8.80;73.34;94810.94;6818707;28;20337;-69
2021/05/01 06:45:24;;;;;;;32.83;27.50;;;;;;;8.78;73.72;94804.94;6819448;28;20271;-68
2021/05/01 06:48:46;;;;;;;33.80;29.47;;;;;;;8.77;73.98;94805.91;6846117;28;20234;-69
2021/05/01 06:52:08;;;;;;;28.57;25.30;;;;;;;8.80;74.17;94795.88;6819742;28;20220;-69
2021/05/01 06:55:30;;;;;;;28.27;24.97;;;;;;;8.87;73.99;94790.88;6818719;28;20232;-68
2021/05/01 06:58:51;;;;;;;26.27;23.23;;;;;;;8.96;74.18;94804.13;6819469;28;20312;-69
2021/05/01 07:02:12;;;;;;;18.30;16.50;;;;;;;8.99;73.41;94795.06;6834876;28;20228;-68
2021/05/01 07:05:33;;;;;;;18.10;16.00;;;;;;;9.02;73.48;94800.09;6834832;28;20221;-68
2021/05/01 07:08:58;;;;;;;15.63;14.00;;;;;;;9.05;73.00;94810.44;6835253;28;20232;-68
2021/05/01 07:12:20;;;;;;;25.40;15.07;;;;;;;9.09;73.15;94795.94;6835521;28;20624;-69
2021/05/01 07:15:41;;;;;;;14.37;12.97;;;;;;;9.11;72.81;94786.00;6834475;28;20232;-68
2021/05/01 07:19:02;;;;;;;14.87;13.47;;;;;;;9.11;72.16;94782.53;6835426;28;20222;-68
2021/05/01 07:22:22;;;;;;;14.50;13.17;;;;;;;9.11;72.01;94787.81;6834674;28;20220;-69
2021/05/01 07:25:43;;;;;;;14.57;13.27;;;;;;;9.11;71.74;94788.66;6837707;28;20676;-69
2021/05/01 07:29:05;;;;;;;15.07;13.67;;;;;;;8.93;70.78;94791.16;6852984;28;20245;-69
2021/05/01 07:32:33;;;;;;;14.40;12.90;;;;;;;8.83;71.55;94794.78;6822930;28;20228;-68
2021/05/01 07:35:58;;;;;;;12.93;11.73;;;;;;;8.79;71.75;94791.56;6820879;28;20707;-67
2021/05/01 07:39:19;;;;;;;13.27;12.07;;;;;;;8.76;71.64;94806.88;6823537;28;20648;-68
2021/05/01 07:42:42;;;;;;;14.27;12.93;;;;;;;8.75;71.96;94800.72;6823399;28;20762;-69
2021/05/01 07:46:06;;;;;;;16.23;14.73;;;;;;;8.75;71.80;94803.38;6823747;28;20222;-68
2021/05/01 07:49:28;;;;;;;16.37;14.77;;;;;;;8.78;71.58;94802.28;6818293;28;20263;-68
2021/05/01 07:52:50;;;;;;;16.13;14.63;;;;;;;8.73;71.55;94805.34;6839494;28;20223;-69
2021/05/01 07:56:11;;;;;;;17.30;15.50;;;;;;;8.72;71.36;94792.22;6822650;28;20236;-69
2021/05/01 07:59:32;;;;;;;17.17;15.57;;;;;;;8.69;71.91;94787.22;6838773;28;20598;-69
2021/05/01 08:02:52;;;;;;;17.07;15.57;;;;;;;8.76;71.94;94793.63;6838541;28;20230;-69
2021/05/01 08:06:13;;;;;;;16.33;14.83;;;;;;;8.78;71.73;94791.69;6855450;28;20249;-68
2021/05/01 08:09:33;;;;;;;17.37;15.77;;;;;;;8.82;71.40;94798.38;6837628;28;20676;-70
2021/05/01 08:12:54;;;;;;;18.20;16.50;;;;;;;8.85;71.33;94806.06;6806719;28;20220;-69
2021/05/01 08:16:15;;;;;;;21.47;19.37;;;;;;;8.87;71.72;94804.94;6855894;28;20626;-69
2021/05/01 08:19:35;;;;;;;16.23;14.73;;;;;;;8.90;71.20;94811.78;6822109;28;20227;-70
2021/05/01 08:22:56;;;;;;;17.87;16.13;;;;;;;8.91;71.19;94811.63;6816348;28;20247;-68
2021/05/01 08:26:16;;;;;;;15.63;14.23;;;;;;;8.92;71.47;94810.66;6786931;28;20222;-70
2021/05/01 08:29:39;;;;;;;14.60;13.20;;;;;;;8.93;70.62;94806.22;6795194;28;20219;-68
2021/05/01 08:33:00;;;;;;;13.80;12.50;;;;;;;8.95;70.82;94806.94;6787545;28;20234;-68
2021/05/01 08:36:20;;;;;;;14.97;13.57;;;;;;;8.94;70.58;94807.91;6812214;28;20243;-69
2021/05/01 08:39:41;;;;;;;14.20;12.90;;;;;;;8.95;71.08;94812.22;6806290;28;20257;-69
2021/05/01 08:43:04;;;;;;;15.83;14.33;;;;;;;8.99;70.78;94810.97;6842734;28;20268;-68
2021/05/01 08:46:26;;;;;;;15.70;14.30;;;;;;;9.00;70.49;94815.28;6813733;28;20604;-68
2021/05/01 08:49:46;;;;;;;18.00;16.40;;;;;;;8.98;70.52;94812.78;6772533;28;20237;-69
2021/05/01 08:53:08;;;;;;;16.20;14.73;;;;;;;8.94;70.63;94823.78;6779973;28;20215;-69
2021/05/01 08:56:28;;;;;;;18.07;16.37;;;;;;;8.93;70.55;94809.69;6808238;28;20220;-69
2021/05/01 08:59:48;;;;;;;18.40;16.70;;;;;;;8.95;70.80;94817.53;6792618;28;20241;-69
2021/05/01 09:03:10;;;;;;;18.07;16.30;;;;;;;8.96;70.74;94813.88;6807741;28;20817;-68
2021/05/01 09:06:31;;;;;;;18.33;16.60;;;;;;;8.96;70.63;94816.53;6812892;28;20229;-69
2021/05/01 09:09:56;;;;;;;17.00;15.40;;;;;;;8.95;70.49;94826.28;6790961;28;20241;-69
2021/05/01 09:13:22;;;;;;;17.63;16.03;;;;;;;8.99;71.04;94824.22;6793374;28;20215;-68
2021/05/01 09:16:43;;;;;;;20.33;18.23;;;;;;;8.98;71.00;94822.53;6810228;28;20219;-68
2021/05/01 09:20:09;;;;;;;17.90;16.27;;;;;;;9.01;71.19;94835.47;6804870;28;20229;-68
2021/05/01 09:23:36;;;;;;;19.47;17.57;;;;;;;8.99;70.65;94837.44;6830422;28;20392;-68
2021/05/01 09:26:56;;;;;;;18.80;17.00;;;;;;;8.97;70.94;94845.53;6807510;28;20220;-68
2021/05/01 09:30:17;;;;;;;17.47;15.73;;;;;;;8.96;71.60;94843.84;6836959;28;20266;-69
2021/05/01 09:33:43;;;;;;;17.77;16.07;;;;;;;9.00;71.51;94844.44;6843139;28;20239;-70
2021/05/01 09:37:04;;;;;;;15.47;14.07;;;;;;;9.08;71.17;94841.91;6851439;28;20229;-68
2021/05/01 09:40:30;;;;;;;16.53;15.03;;;;;;;9.20;71.75;94837.34;6813180;28;20243;-69
2021/05/01 09:43:55;;;;;;;14.37;13.07;;;;;;;9.18;70.50;94823.38;6811697;28;20596;-69
2021/05/01 09:47:16;;;;;;;15.00;13.50;;;;;;;9.20;70.74;94829.41;6820026;28;20325;-69
2021/05/01 09:50:37;;;;;;;15.83;14.33;;;;;;;9.23;71.52;94832.59;6821481;28;20222;-69
2021/05/01 09:53:59;;;;;;;14.07;12.77;;;;;;;9.32;71.38;94828.28;6812968;28;20220;-69
2021/05/01 09:57:20;;;;;;;15.23;13.83;;;;;;;9.28;70.53;94833.03;6810652;28;20219;-69
2021/05/01 10:00:44;;;;;;;16.97;15.27;;;;;;;9.22;70.95;94820.31;6836962;28;20256;-69
2021/05/01 10:04:21;;;;;;;15.97;14.47;;;;;;;9.29;70.63;94828.56;6824940;28;20235;-69
2021/05/01 10:07:46;;;;;;;14.53;13.23;;;;;;;9.33;70.58;94830.78;6808555;28;20307;-69
2021/05/01 10:11:13;;;;;;;13.63;12.43;;;;;;;9.37;70.67;94831.34;6822024;28;20236;-68
2021/05/01 10:14:50;;;;;;;15.67;14.17;;;;;;;9.33;70.61;94816.69;6789593;28;20218;-69
2021/05/01 10:18:13;;;;;;;15.63;14.03;;;;;;;9.36;70.62;94817.25;6814666;28;20604;-69
2021/05/01 10:21:35;;;;;;;13.90;12.60;;;;;;;9.41;70.46;94806.22;6820899;28;20261;-70
2021/05/01 10:25:01;;;;;;;14.83;13.53;;;;;;;9.47;70.06;94810.97;6824303;28;20220;-69
2021/05/01 10:28:22;;;;;;;13.80;12.50;;;;;;;9.58;70.29;94813.50;6817442;28;20289;-69
2021/05/01 10:31:51;;;;;;;13.93;12.73;;;;;;;9.62;70.00;94798.13;6822844;28;20590;-71
2021/05/01 10:35:12;;;;;;;16.87;15.27;;;;;;;9.62;69.68;94806.91;6787518;28;20209;-72
2021/05/01 10:38:33;;;;;;;11.57;10.57;;;;;;;9.68;68.77;94800.22;6793588;28;20711;-69
2021/05/01 10:42:02;;;;;;;12.53;11.33;;;;;;;9.61;67.36;94789.34;6844952;28;20229;-70
2021/05/01 10:45:27;;;;;;;36.43;27.33;;;;;;;9.67;68.04;94788.78;6811286;28;20309;-70
2021/05/01 10:48:48;;;;;;;14.70;13.30;;;;;;;9.72;68.25;94786.53;6838426;28;20214;-71
2021/05/01 10:52:16;;;;;;;14.27;12.97;;;;;;;9.80;68.12;94778.72;6840680;28;20704;-70
2021/05/01 10:55:47;;;;;;;11.77;10.67;;;;;;;9.84;68.36;94774.81;6817297;28;20264;-70
2021/05/01 10:59:12;;;;;;;13.07;11.87;;;;;;;9.90;68.33;94778.69;6810177;28;20221;-70
2021/05/01 11:02:42;;;;;;;14.60;13.13;;;;;;;9.91;66.69;94775.03;6819589;28;20305;-70
2021/05/01 11:06:04;;;;;;;12.40;11.30;;;;;;;9.82;67.03;94792.66;6798915;28;20215;-70
2021/05/01 11:09:42;;;;;;;15.30;13.90;;;;;;;9.86;67.72;94793.19;6829539;28;20222;-71
2021/05/01 11:13:04;;;;;;;15.37;13.97;;;;;;;9.83;68.29;94794.34;6825808;28;20298;-70
2021/05/01 11:16:31;;;;;;;12.13;11.03;;;;;;;9.87;67.94;94798.38;6833050;28;20253;-71
2021/05/01 11:19:59;;;;;;;12.83;11.63;;;;;;;9.90;67.83;94797.25;6829521;28;20278;-70
2021/05/01 11:23:20;;;;;;;12.50;11.40;;;;;;;9.98;68.77;94793.88;6818515;28;20221;-70
2021/05/01 11:26:45;;;;;;;13.67;12.27;;;;;;;10.10;68.79;94787.44;6828565;28;20220;-70
2021/05/01 11:30:08;;;;;;;14.10;12.73;;;;;;;10.20;68.97;94793.56;6828221;28;20206;-69
2021/05/01 11:33:33;;;;;;;10.50;9.60;;;;;;;10.26;68.50;94793.00;6841075;28;20242;-71
2021/05/01 11:37:02;;;;;;;11.83;10.73;;;;;;;10.32;68.35;94790.59;6830478;28;20705;-71
2021/05/01 11:40:31;;;;;;;9.83;8.93;;;;;;;10.32;66.97;94789.75;6811427;28;20215;-71
2021/05/01 11:43:51;;;;;;;10.63;8.93;;;;;;;10.32;66.78;94787.94;6808506;28;20305;-71
2021/05/01 11:47:14;;;;;;;9.90;9.00;;;;;;;10.31;66.41;94788.09;6829643;28;20236;-70
2021/05/01 11:50:36;;;;;;;7.63;6.93;;;;;;;10.23;66.33;94785.31;6809784;28;20218;-71
2021/05/01 11:54:09;;;;;;;10.97;9.97;;;;;;;10.14;67.20;94776.38;6806031;28;20230;-71
2021/05/01 11:57:38;;;;;;;7.30;6.70;;;;;;;9.99;66.67;94780.47;6815689;28;20232;-71
2021/05/01 12:01:21;;;;;;;10.33;8.60;;;;;;;10.01;67.69;94788.31;6830506;28;20225;-71
2021/05/01 12:04:47;;;;;;;7.17;6.57;;;;;;;10.04;66.74;94794.16;6817971;28;20292;-72
2021/05/01 12:08:21;;;;;;;7.00;6.40;;;;;;;9.97;66.99;94790.38;6853195;28;20220;-71
2021/05/01 12:11:44;;;;;;;7.80;7.10;;;;;;;9.86;67.22;94790.53;6834255;28;20227;-73
2021/05/01 12:15:08;;;;;;;6.53;6.03;;;;;;;9.85;67.66;94794.19;6802079;28;20217;-71
2021/05/01 12:18:50;;;;;;;5.97;5.47;;;;;;;9.89;67.04;94780.50;6829917;28;20289;-70
2021/05/01 12:22:28;;;;;;;7.20;6.53;;;;;;;9.85;66.79;94773.84;6848322;28;20253;-71
2021/05/01 12:25:54;;;;;;;10.17;9.17;;;;;;;9.91;67.87;94775.03;6826504;28;20884;-71
2021/05/01 12:29:21;;;;;;;8.37;7.60;;;;;;;9.96;68.61;94767.50;6838041;28;20218;-71
2021/05/01 12:32:41;;;;;;;8.87;8.07;;;;;;;9.98;67.99;94770.00;6834224;28;20257;-72
2021/05/01 12:36:03;;;;;;;13.17;11.97;;;;;;;9.88;68.32;94773.53;6810123;28;20227;-72
2021/05/01 12:39:27;;;;;;;15.87;14.27;;;;;;;9.81;68.45;94763.63;6824934;28;20211;-72
2021/05/01 12:42:50;;;;;;;16.53;14.93;;;;;;;9.78;68.77;94762.13;6833904;28;20764;-72
2021/05/01 12:46:13;;;;;;;10.63;9.63;;;;;;;9.83;69.68;94765.16;6828519;28;20238;-70
2021/05/01 12:49:34;;;;;;;9.37;8.43;;;;;;;9.93;69.71;94765.13;6811391;28;20292;-72
2021/05/01 12:53:30;;;;;;;8.90;8.10;;;;;;;9.94;70.98;94747.41;6812718;28;20281;-74
2021/05/01 12:56:55;;;;;;;7.47;6.70;;;;;;;9.95;71.38;94747.28;6816382;28;20277;-76
2021/05/01 13:00:25;;;;;;;10.03;9.03;;;;;;;9.95;70.76;94743.78;6835523;28;20233;-77
2021/05/01 13:04:25;;;;;;;8.80;7.97;;;;;;;9.84;70.37;94745.63;6814965;28;20224;-75
2021/05/01 13:07:48;;;;;;;6.20;5.70;;;;;;;9.84;69.82;94740.31;6807443;28;20219;-76
2021/05/01 13:11:14;;;;;;;6.23;5.73;;;;;;;9.82;70.40;94734.31;6793242;28;20219;-74
2021/05/01 13:14:55;;;;;;;6.30;5.70;;;;;;;9.85;71.18;94731.41;6795959;28;20229;-76
2021/05/01 13:18:15;;;;;;;7.70;6.87;;;;;;;9.91;71.18;94735.25;6795253;28;20749;-74
2021/05/01 13:21:57;;;;;;;6.50;6.00;;;;;;;9.88;70.81;94725.78;6791636;28;20687;-73
2021/05/01 13:25:24;;;;;;;7.07;6.47;;;;;;;9.90;71.09;94721.19;6813712;28;20218;-74
2021/05/01 13:28:52;;;;;;;8.10;6.53;;;;;;;9.89;71.79;94722.16;6790575;28;20246;-75
2021/05/01 13:32:15;;;;;;;6.27;5.77;;;;;;;9.95;72.18;94714.63;6823362;28;20660;-75
2021/05/01 13:35:37;;;;;;;5.20;4.70;;;;;;;9.94;71.90;94713.78;6814816;28;20232;-75
2021/05/01 13:38:59;;;;;;;6.97;6.27;;;;;;;10.01;70.95;94709.53;6809077;28;20356;-74
2021/05/01 13:42:23;;;;;;;5.20;4.70;;;;;;;10.03;70.73;94717.34;6811116;28;20234;-76
2021/05/01 13:45:47;;;;;;;5.77;5.23;;;;;;;9.96;70.07;94708.34;6782806;28;20215;-76
2021/05/01 13:49:07;;;;;;;6.27;5.77;;;;;;;9.91;69.88;94714.88;6811041;28;20223;-75
2021/05/01 13:53:00;;;;;;;7.53;6.83;;;;;;;9.91;70.48;94717.53;6789791;28;20586;-75
2021/05/01 13:56:25;;;;;;;6.40;5.90;;;;;;;9.91;70.59;94714.88;6808956;28;20266;-74
2021/05/01 13:59:57;;;;;;;6.13;5.63;;;;;;;9.90;70.91;94707.09;6814639;28;20231;-75
2021/05/01 14:03:30;;;;;;;6.53;5.93;;;;;;;9.85;70.62;94712.84;6820776;28;20218;-75
2021/05/01 14:06:50;;;;;;;6.47;5.97;;;;;;;9.80;72.16;94704.47;6793845;28;20325;-78
2021/05/01 14:10:24;;;;;;;5.90;5.40;;;;;;;9.72;71.83;94708.81;6833616;28;20219;-78
2021/05/01 14:13:47;;;;;;;6.80;6.20;;;;;;;9.72;71.36;94703.50;6801737;28;20269;-78
2021/05/01 14:17:10;;;;;;;9.43;8.53;;;;;;;9.70;72.23;94703.69;6790576;28;20237;-78
2021/05/01 14:20:34;;;;;;;9.13;8.03;;;;;;;9.66;72.43;94704.06;6784151;28;20261;-78
2021/05/01 14:23:57;;;;;;;91.67;64.13;;;;;;;9.70;72.65;94694.88;6799240;28;20257;-76
2021/05/01 14:27:18;;;;;;;6.87;5.90;;;;;;;9.68;72.06;94688.88;6806539;28;20246;-76
2021/05/01 14:30:40;;;;;;;6.27;5.77;;;;;;;9.71;72.07;94689.41;6806770;28;20557;-77
2021/05/01 14:34:02;;;;;;;29.47;18.67;;;;;;;9.82;72.44;94699.84;6798063;28;20304;-77
2021/05/01 14:37:24;;;;;;;17.47;15.67;;;;;;;9.82;72.31;94699.84;6789019;28;20710;-74
2021/05/01 14:40:45;;;;;;;6.57;5.97;;;;;;;9.83;72.11;94698.03;6807579;28;20286;-76
2021/05/01 14:44:14;;;;;;;6.00;5.50;;;;;;;9.78;72.11;94689.69;6814562;28;20769;-77
2021/05/01 14:47:37;;;;;;;6.03;5.47;;;;;;;9.77;72.77;94699.44;6808351;28;20242;-79
2021/05/01 14:51:08;;;;;;;5.40;4.90;;;;;;;9.80;72.49;94698.34;6799464;28;20679;-78
2021/05/01 14:54:38;;;;;;;5.47;5.07;;;;;;;9.80;71.16;94696.53;6806259;28;20296;-78
2021/05/01 14:58:01;;;;;;;5.90;5.40;;;;;;;9.80;71.51;94701.84;6823600;28;20308;-79
2021/05/01 15:01:24;;;;;;;6.77;6.10;;;;;;;9.81;71.57;94710.59;6826306;28;20604;-79
2021/05/01 15:04:59;;;;;;;7.10;5.93;;;;;;;9.80;72.32;94709.78;6791854;28;20233;-78
2021/05/01 15:08:23;;;;;;;7.10;6.40;;;;;;;9.69;71.98;94709.13;6822024;28;20702;-75
2021/05/01 15:11:46;;;;;;;7.37;6.23;;;;;;;9.67;73.67;94703.09;6802505;28;20235;-75
2021/05/01 15:15:10;;;;;;;5.30;4.90;;;;;;;9.66;74.20;94710.22;6803383;28;20751;-74
2021/05/01 15:18:31;;;;;;;8.07;6.43;;;;;;;9.68;72.57;94713.56;6812580;28;20311;-76
2021/05/01 15:21:59;;;;;;;5.83;5.30;;;;;;;9.69;72.77;94707.31;6801217;28;20230;-72
2021/05/01 15:25:20;;;;;;;5.43;5.03;;;;;;;9.71;72.31;94709.78;6806173;28;20661;-72
2021/05/01 15:28:42;;;;;;;15.10;10.60;;;;;;;9.67;72.87;94701.28;6787415;28;20235;-74
2021/05/01 15:32:03;;;;;;;9.93;7.57;;;;;;;9.60;72.86;94696.72;6789505;28;20213;-73
2021/05/01 15:35:24;;;;;;;7.47;6.07;;;;;;;9.59;74.04;94697.69;6795059;28;20222;-74
2021/05/01 15:38:46;;;;;;;7.77;7.07;;;;;;;9.57;74.00;94692.53;6816225;28;20233;-74
2021/05/01 15:42:07;;;;;;;8.00;7.30;;;;;;;9.54;74.23;94690.19;6806157;28;20288;-76
2021/05/01 15:45:27;;;;;;;7.60;6.90;;;;;;;9.52;74.87;94689.47;6804674;28;20216;-72
2021/05/01 15:48:49;;;;;;;18.10;8.67;;;;;;;9.52;75.19;94678.88;6808826;28;20230;-72
2021/05/01 15:52:10;;;;;;;7.37;6.73;;;;;;;9.57;74.93;94678.44;6822447;28;20254;-72